Time,TemperatureF,DewpointF,PressureIn,WindDirection,WindDirectionDegrees,WindSpeedMPH,WindSpeedGustMPH,Humidity,HourlyPrecipIn,Conditions,Clouds,dailyrainin,SolarRadiationWatts/m^2,SoftwareType,DateUTC
2013-03-08 00:01:00,46.0,35.0,-100.00,NNW,338,0.0,0.0,66,0.00,,,0.01,1.000000,,2013-03-08 08:01:00,
2013-03-08 00:11:00,46.0,35.0,-100.00,NNW,338,0.0,0.0,66,0.00,,,0.01,1.000000,,2013-03-08 08:11:00,
2013-03-08 00:21:00,46.0,35.0,-100.00,NNW,338,0.0,0.0,66,0.00,,,0.01,1.000000,,2013-03-08 08:21:00,
2013-03-08 00:31:00,46.0,35.0,-100.00,NNW,338,0.0,0.0,66,0.00,,,0.01,1.000000,,2013-03-08 08:31:00,
2013-03-08 00:52:00,46.0,33.0,-100.00,NNW,346,0.0,0.0,61,0.00,,,0.01,1.000000,,2013-03-08 08:52:00,
2013-03-08 01:02:00,46.0,33.0,-100.00,NNW,346,0.0,0.0,61,0.00,,,0.01,1.000000,,2013-03-08 09:02:00,
2013-03-08 01:11:00,46.0,33.0,-100.00,NNW,346,0.0,0.0,61,0.00,,,0.01,1.000000,,2013-03-08 09:11:00,
2013-03-08 01:21:00,46.0,33.0,-100.00,NNW,346,0.0,0.0,61,0.00,,,0.01,1.000000,,2013-03-08 09:21:00,
2013-03-08 01:31:00,46.0,33.0,-100.00,NNW,346,0.0,0.0,61,0.00,,,0.01,1.000000,,2013-03-08 09:31:00,
2013-03-08 01:52:00,47.0,32.0,-100.00,NNW,343,0.0,16.0,55,0.00,,,0.01,1.000000,,2013-03-08 09:52:00,
2013-03-08 02:01:00,47.0,32.0,-100.00,NNW,343,0.0,16.0,55,0.00,,,0.01,1.000000,,2013-03-08 10:01:00,
2013-03-08 02:11:00,47.0,32.0,-100.00,NNW,343,0.0,16.0,55,0.00,,,0.01,1.000000,,2013-03-08 10:11:00,
2013-03-08 02:21:00,47.0,32.0,-100.00,NNW,343,0.0,16.0,55,0.00,,,0.01,1.000000,,2013-03-08 10:21:00,
2013-03-08 02:31:00,47.0,32.0,-100.00,NNW,343,0.0,16.0,55,0.00,,,0.01,1.000000,,2013-03-08 10:31:00,
2013-03-08 02:52:00,47.0,31.0,-100.00,NNW,335,0.0,0.0,53,0.00,,,0.01,1.000000,,2013-03-08 10:52:00,
2013-03-08 03:01:00,47.0,31.0,-100.00,NNW,335,0.0,0.0,53,0.00,,,0.01,1.000000,,2013-03-08 11:01:00,
2013-03-08 03:11:00,47.0,31.0,-100.00,NNW,335,0.0,0.0,53,0.00,,,0.01,1.000000,,2013-03-08 11:11:00,
2013-03-08 03:21:00,47.0,31.0,-100.00,NNW,335,0.0,0.0,53,0.00,,,0.01,1.000000,,2013-03-08 11:21:00,
2013-03-08 03:32:00,47.0,31.0,-100.00,NNW,335,0.0,0.0,53,0.00,,,0.01,1.000000,,2013-03-08 11:32:00,
2013-03-08 03:52:00,47.0,30.0,-100.00,NNW,345,0.0,0.0,52,-99.99,,,0.01,1.000000,,2013-03-08 11:52:00,
2013-03-08 04:52:00,47.0,28.0,-100.00,North,354,0.0,0.0,47,-99.99,,,0.01,1.000000,,2013-03-08 12:52:00,
2013-03-08 05:01:00,47.0,28.0,-100.00,North,354,0.0,0.0,47,-99.99,,,0.01,1.000000,,2013-03-08 13:01:00,
2013-03-08 05:52:00,48.0,27.0,-100.00,NNW,334,0.0,0.0,43,-99.99,,,0.01,1.000000,,2013-03-08 13:52:00,
2013-03-08 06:52:00,49.0,26.0,-100.00,NNW,343,0.0,17.0,41,-99.99,,,0.01,1.000000,,2013-03-08 14:52:00,
2013-03-08 07:02:00,49.0,26.0,-100.00,NNW,343,0.0,17.0,41,-99.99,,,0.01,1.000000,,2013-03-08 15:02:00,
2013-03-08 07:53:00,51.0,24.0,-100.00,NNW,343,0.0,0.0,35,-99.99,,,0.01,41.000000,,2013-03-08 15:53:00,
2013-03-08 08:52:00,47.0,32.0,-100.00,WNW,287,0.0,0.0,55,-99.99,,,0.01,104.000000,,2013-03-08 16:52:00,
2013-03-08 09:02:00,47.0,32.0,-100.00,WNW,287,0.0,0.0,55,-99.99,,,0.01,104.000000,,2013-03-08 17:02:00,
2013-03-08 09:11:00,47.0,32.0,-100.00,WNW,287,0.0,0.0,55,-99.99,,,0.01,104.000000,,2013-03-08 17:11:00,
2013-03-08 09:21:00,47.0,32.0,-100.00,WNW,287,0.0,0.0,55,-99.99,,,0.01,104.000000,,2013-03-08 17:21:00,
2013-03-08 09:31:00,47.0,32.0,-100.00,WNW,287,0.0,0.0,55,-99.99,,,0.01,104.000000,,2013-03-08 17:31:00,
2013-03-08 09:52:00,49.0,38.0,-100.00,West,271,0.0,0.0,65,0.00,,,0.01,321.000000,,2013-03-08 17:52:00,
2013-03-08 10:01:00,49.0,38.0,-100.00,West,271,0.0,0.0,65,0.00,,,0.01,321.000000,,2013-03-08 18:01:00,
2013-03-08 10:11:00,49.0,38.0,-100.00,West,271,0.0,0.0,65,0.00,,,0.01,321.000000,,2013-03-08 18:11:00,
2013-03-08 10:21:00,49.0,38.0,-100.00,West,271,0.0,0.0,65,0.00,,,0.01,321.000000,,2013-03-08 18:21:00,
2013-03-08 10:31:00,49.0,38.0,-100.00,West,271,0.0,0.0,65,0.00,,,0.01,321.000000,,2013-03-08 18:31:00,
2013-03-08 10:52:00,50.0,38.0,-100.00,West,272,14.0,23.0,64,0.00,,,0.01,542.000000,,2013-03-08 18:52:00,
2013-03-08 11:01:00,50.0,38.0,-100.00,West,272,14.0,23.0,64,0.00,,,0.01,542.000000,,2013-03-08 19:01:00,
2013-03-08 11:11:00,50.0,38.0,-100.00,West,272,14.0,23.0,64,0.00,,,0.01,542.000000,,2013-03-08 19:11:00,
2013-03-08 11:21:00,50.0,38.0,-100.00,West,272,14.0,23.0,64,0.00,,,0.01,542.000000,,2013-03-08 19:21:00,
2013-03-08 11:31:00,50.0,38.0,-100.00,West,272,14.0,23.0,64,0.00,,,0.01,542.000000,,2013-03-08 19:31:00,
2013-03-08 11:52:00,50.0,37.0,-100.00,WSW,257,0.0,23.0,60,0.00,,,0.01,657.000000,,2013-03-08 19:52:00,
2013-03-08 12:01:00,50.0,37.0,-100.00,WSW,257,0.0,23.0,60,0.00,,,0.01,657.000000,,2013-03-08 20:01:00,
2013-03-08 12:11:00,50.0,37.0,-100.00,WSW,257,0.0,23.0,60,0.00,,,0.01,657.000000,,2013-03-08 20:11:00,
2013-03-08 12:21:00,50.0,37.0,-100.00,WSW,257,0.0,23.0,60,0.00,,,0.01,657.000000,,2013-03-08 20:21:00,
2013-03-08 12:31:00,50.0,37.0,-100.00,WSW,257,0.0,23.0,60,0.00,,,0.01,657.000000,,2013-03-08 20:31:00,
2013-03-08 12:53:00,52.0,39.0,-100.00,WSW,256,0.0,0.0,61,0.00,,,0.01,740.000000,,2013-03-08 20:53:00,
2013-03-08 13:01:00,52.0,39.0,-100.00,WSW,256,0.0,0.0,61,0.00,,,0.01,740.000000,,2013-03-08 21:01:00,
2013-03-08 13:11:00,52.0,39.0,-100.00,WSW,256,0.0,0.0,61,0.00,,,0.01,740.000000,,2013-03-08 21:11:00,
2013-03-08 13:21:00,52.0,39.0,-100.00,WSW,256,0.0,0.0,61,0.00,,,0.01,740.000000,,2013-03-08 21:21:00,
2013-03-08 13:32:00,52.0,39.0,-100.00,WSW,256,0.0,0.0,61,0.00,,,0.01,740.000000,,2013-03-08 21:32:00,
2013-03-08 13:52:00,50.0,39.0,-100.00,West,269,0.0,0.0,66,0.00,,,0.01,721.000000,,2013-03-08 21:52:00,
2013-03-08 14:01:00,50.0,39.0,-100.00,West,269,0.0,0.0,66,0.00,,,0.01,721.000000,,2013-03-08 22:01:00,
2013-03-08 14:11:00,50.0,39.0,-100.00,West,269,0.0,0.0,66,0.00,,,0.01,721.000000,,2013-03-08 22:11:00,
2013-03-08 14:21:00,50.0,39.0,-100.00,West,269,0.0,0.0,66,0.00,,,0.01,721.000000,,2013-03-08 22:21:00,
2013-03-08 14:32:00,50.0,39.0,-100.00,West,269,0.0,0.0,66,0.00,,,0.01,721.000000,,2013-03-08 22:32:00,
2013-03-08 14:52:00,49.0,39.0,-100.00,West,264,0.0,0.0,69,0.00,,,0.01,689.000000,,2013-03-08 22:52:00,
2013-03-08 15:01:00,49.0,39.0,-100.00,West,264,0.0,0.0,69,0.00,,,0.01,689.000000,,2013-03-08 23:01:00,
2013-03-08 15:11:00,49.0,39.0,-100.00,West,264,0.0,0.0,69,0.00,,,0.01,689.000000,,2013-03-08 23:11:00,
2013-03-08 15:21:00,49.0,39.0,-100.00,West,264,0.0,0.0,69,0.00,,,0.01,689.000000,,2013-03-08 23:21:00,
2013-03-08 15:31:00,49.0,39.0,-100.00,West,264,0.0,0.0,69,0.00,,,0.01,689.000000,,2013-03-08 23:31:00,
2013-03-08 15:53:00,48.0,39.0,-100.00,West,260,0.0,0.0,71,0.00,,,0.01,574.000000,,2013-03-08 23:53:00,
2013-03-08 16:01:00,48.0,39.0,-100.00,West,260,0.0,0.0,71,0.00,,,0.01,574.000000,,2013-03-09 00:01:00,
2013-03-08 16:11:00,48.0,39.0,-100.00,West,260,0.0,0.0,71,0.00,,,0.01,574.000000,,2013-03-09 00:11:00,
2013-03-08 16:21:00,48.0,39.0,-100.00,West,260,0.0,0.0,71,0.00,,,0.01,574.000000,,2013-03-09 00:21:00,
2013-03-08 16:31:00,48.0,39.0,-100.00,West,260,0.0,0.0,71,0.00,,,0.01,574.000000,,2013-03-09 00:31:00,
2013-03-08 16:52:00,47.0,39.0,-100.00,West,270,0.0,0.0,74,0.00,,,0.01,410.000000,,2013-03-09 00:52:00,
2013-03-08 17:01:00,47.0,39.0,-100.00,West,270,0.0,0.0,74,0.00,,,0.01,410.000000,,2013-03-09 01:01:00,
2013-03-08 17:12:00,47.0,39.0,-100.00,West,270,0.0,0.0,74,0.00,,,0.01,410.000000,,2013-03-09 01:12:00,
2013-03-08 17:21:00,47.0,39.0,-100.00,West,270,0.0,0.0,74,0.00,,,0.01,410.000000,,2013-03-09 01:21:00,
2013-03-08 17:31:00,47.0,39.0,-100.00,West,270,0.0,0.0,74,0.00,,,0.01,410.000000,,2013-03-09 01:31:00,
2013-03-08 19:52:00,44.0,41.0,-100.00,West,268,0.0,0.0,89,-99.99,,,0.00,1.000000,,2013-03-09 03:52:00,
2013-03-08 20:01:00,44.0,41.0,-100.00,West,268,0.0,0.0,89,-99.99,,,0.00,1.000000,,2013-03-09 04:01:00,
2013-03-08 20:11:00,44.0,41.0,-100.00,West,268,0.0,0.0,89,-99.99,,,0.00,1.000000,,2013-03-09 04:11:00,
2013-03-08 20:22:00,44.0,41.0,-100.00,West,268,0.0,0.0,89,-99.99,,,0.00,1.000000,,2013-03-09 04:22:00,
2013-03-08 20:31:00,44.0,41.0,-100.00,West,268,0.0,0.0,89,-99.99,,,0.00,1.000000,,2013-03-09 04:31:00,
2013-03-08 20:52:00,44.0,41.0,-100.00,WSW,257,0.0,0.0,89,0.00,,,0.00,1.000000,,2013-03-09 04:52:00,
2013-03-08 21:02:00,44.0,41.0,-100.00,WSW,257,0.0,0.0,89,0.00,,,0.00,1.000000,,2013-03-09 05:02:00,
2013-03-08 21:11:00,44.0,41.0,-100.00,WSW,257,0.0,0.0,89,0.00,,,0.00,1.000000,,2013-03-09 05:11:00,
2013-03-08 21:21:00,44.0,41.0,-100.00,WSW,257,0.0,0.0,89,0.00,,,0.00,1.000000,,2013-03-09 05:21:00,
2013-03-08 21:31:00,44.0,41.0,-100.00,WSW,257,0.0,0.0,89,0.00,,,0.00,1.000000,,2013-03-09 05:31:00,
2013-03-08 21:53:00,43.0,40.0,-100.00,WSW,250,0.0,0.0,90,0.00,,,0.00,1.000000,,2013-03-09 05:53:00,
2013-03-08 22:01:00,43.0,40.0,-100.00,WSW,250,0.0,0.0,90,0.00,,,0.00,1.000000,,2013-03-09 06:01:00,
2013-03-08 22:11:00,43.0,40.0,-100.00,WSW,250,0.0,0.0,90,0.00,,,0.00,1.000000,,2013-03-09 06:11:00,
2013-03-08 22:22:00,43.0,40.0,-100.00,WSW,250,0.0,0.0,90,0.00,,,0.00,1.000000,,2013-03-09 06:22:00,
2013-03-08 22:31:00,43.0,40.0,-100.00,WSW,250,0.0,0.0,90,0.00,,,0.00,1.000000,,2013-03-09 06:31:00,
2013-03-08 22:52:00,43.0,40.0,-100.00,West,262,0.0,0.0,89,0.00,,,0.00,1.000000,,2013-03-09 06:52:00,
2013-03-08 23:01:00,43.0,40.0,-100.00,West,262,0.0,0.0,89,0.00,,,0.00,1.000000,,2013-03-09 07:01:00,
2013-03-08 23:11:00,43.0,40.0,-100.00,West,262,0.0,0.0,89,0.00,,,0.00,1.000000,,2013-03-09 07:11:00,
2013-03-08 23:21:00,43.0,40.0,-100.00,West,262,0.0,0.0,89,0.00,,,0.00,1.000000,,2013-03-09 07:21:00,
2013-03-08 23:31:00,43.0,40.0,-100.00,West,262,0.0,0.0,89,0.00,,,0.00,1.000000,,2013-03-09 07:31:00,
2013-03-08 23:52:00,43.0,38.0,-100.00,West,279,0.0,0.0,84,0.00,,,0.00,1.000000,,2013-03-09 07:52:00,